Time;durP1;ratioP1;P1;durP2;ratioP2;P2;SDS_P1;SDS_P2;PMS_P1;PMS_P2;Temp;Humidity;BMP_temperature;BMP_pressure;BME280_temperature;BME280_humidity;BME280_pressure;Samples;Min_cycle;Max_cycle;Signal;HPM_P1;HPM_P2
2022/05/20 00:02:06;;;;;;;41.57;36.87;;;18.20;99.90;;;;;;4946027;29;20472;-80
2022/05/20 00:04:34;;;;;;;42.67;36.90;;;18.00;99.90;;;;;;4932096;29;20450;-81
2022/05/20 00:07:03;;;;;;;40.47;36.20;;;18.00;99.90;;;;;;4947222;29;20469;-80
2022/05/20 00:09:31;;;;;;;46.83;41.77;;;17.90;99.90;;;;;;4949455;29;20976;-81
2022/05/20 00:11:59;;;;;;;46.90;37.13;;;17.80;99.90;;;;;;4949190;29;20489;-80
2022/05/20 00:14:27;;;;;;;47.17;39.00;;;17.70;99.90;;;;;;4949484;28;20501;-81
2022/05/20 00:16:56;;;;;;;51.83;39.23;;;17.60;99.90;;;;;;4948522;29;20558;-82
2022/05/20 00:19:24;;;;;;;41.57;35.97;;;17.60;99.90;;;;;;4949134;29;20534;-82
2022/05/20 00:21:52;;;;;;;48.60;41.43;;;17.50;99.90;;;;;;4935848;29;21156;-82
2022/05/20 00:24:20;;;;;;;43.77;37.07;;;17.50;99.90;;;;;;4933529;29;21104;-82
2022/05/20 00:26:48;;;;;;;47.27;36.87;;;17.40;99.90;;;;;;4932145;29;20470;-83
2022/05/20 00:29:16;;;;;;;40.93;31.70;;;17.30;99.90;;;;;;4932168;29;20452;-82
2022/05/20 00:31:44;;;;;;;49.70;37.93;;;17.30;99.90;;;;;;4929708;29;20481;-82
2022/05/20 00:34:14;;;;;;;50.03;39.80;;;17.30;99.90;;;;;;4931666;29;20513;-82
2022/05/20 00:36:42;;;;;;;48.17;37.73;;;17.30;99.90;;;;;;4932765;29;20445;-81
2022/05/20 00:39:09;;;;;;;52.10;40.90;;;17.30;99.90;;;;;;4933725;29;20443;-81
2022/05/20 00:41:38;;;;;;;58.07;42.40;;;17.40;99.90;;;;;;4932936;29;20466;-82
2022/05/20 00:44:07;;;;;;;52.03;41.43;;;17.40;99.90;;;;;;4934509;29;20962;-81
2022/05/20 00:46:35;;;;;;;59.17;41.10;;;17.40;99.90;;;;;;4932777;29;20459;-80
2022/05/20 00:49:08;;;;;;;57.37;43.30;;;17.30;99.90;;;;;;4931129;29;20455;-80
2022/05/20 00:51:42;;;;;;;52.13;42.33;;;17.30;99.90;;;;;;4939659;29;20551;-81
2022/05/20 00:54:14;;;;;;;69.73;45.83;;;17.20;99.90;;;;;;4943319;29;20445;-77
2022/05/20 00:56:46;;;;;;;73.13;47.83;;;17.10;99.90;;;;;;4937535;29;20518;-79
2022/05/20 00:59:20;;;;;;;57.67;43.83;;;17.10;99.90;;;;;;4940129;29;20545;-78
2022/05/20 01:01:52;;;;;;;70.10;48.03;;;17.10;99.90;;;;;;4939859;29;20492;-78
2022/05/20 01:04:22;;;;;;;66.97;46.30;;;17.10;99.90;;;;;;4942577;29;20572;-76
2022/05/20 01:06:51;;;;;;;72.00;50.40;;;17.20;99.90;;;;;;4932344;29;20447;-77
2022/05/20 01:09:19;;;;;;;82.30;52.87;;;17.10;99.90;;;;;;4945134;29;20542;-78
2022/05/20 01:11:47;;;;;;;74.57;48.87;;;17.10;99.90;;;;;;4944884;29;20490;-79
2022/05/20 01:14:20;;;;;;;76.30;52.10;;;17.00;99.90;;;;;;4942082;29;20566;-81
2022/05/20 01:16:48;;;;;;;81.40;51.53;;;16.90;99.90;;;;;;4927193;29;20465;-82
2022/05/20 01:19:26;;;;;;;89.50;52.77;;;16.80;99.90;;;;;;4926404;29;20438;-82
2022/05/20 01:21:55;;;;;;;83.37;50.73;;;16.70;99.90;;;;;;4925943;29;20465;-79
2022/05/20 01:24:25;;;;;;;82.90;52.90;;;16.60;99.90;;;;;;4925574;29;20461;-79
2022/05/20 01:26:52;;;;;;;83.43;53.50;;;16.50;99.90;;;;;;4926214;29;21114;-81
2022/05/20 01:29:21;;;;;;;68.53;46.37;;;16.50;99.90;;;;;;4925827;29;20960;-78
2022/05/20 01:31:49;;;;;;;72.40;48.33;;;16.30;99.90;;;;;;4927789;29;20488;-79
2022/05/20 01:34:17;;;;;;;72.10;46.27;;;16.20;99.90;;;;;;4926722;29;20996;-78
2022/05/20 01:36:44;;;;;;;66.83;44.00;;;16.20;99.90;;;;;;4926777;29;20453;-80
2022/05/20 01:39:12;;;;;;;70.10;45.40;;;16.00;99.90;;;;;;4925527;29;20446;-78
2022/05/20 01:41:47;;;;;;;62.40;43.40;;;15.90;99.90;;;;;;4927424;29;20468;-79
2022/05/20 01:44:22;;;;;;;61.70;42.00;;;15.80;99.90;;;;;;4925791;29;20480;-80
2022/05/20 01:46:59;;;;;;;65.70;40.00;;;15.70;99.90;;;;;;4925233;29;20445;-79
2022/05/20 01:49:37;;;;;;;66.40;44.20;;;15.60;99.90;;;;;;4925531;29;20452;-80
2022/05/20 01:52:13;;;;;;;67.27;43.97;;;15.50;99.90;;;;;;4925583;29;20508;-78
2022/05/20 01:54:49;;;;;;;63.97;42.47;;;15.50;99.90;;;;;;4927647;29;20469;-84
2022/05/20 01:57:24;;;;;;;70.57;45.70;;;15.40;99.90;;;;;;4944682;28;21132;-80
2022/05/20 01:59:56;;;;;;;70.33;45.47;;;15.40;99.90;;;;;;4943843;29;20456;-79
2022/05/20 02:02:29;;;;;;;69.10;45.07;;;15.40;99.90;;;;;;4944781;29;20471;-78
2022/05/20 02:05:01;;;;;;;65.80;42.60;;;15.40;99.90;;;;;;4941976;29;20543;-72
2022/05/20 02:07:32;;;;;;;58.70;39.87;;;15.40;99.90;;;;;;4940897;29;21028;-71
2022/05/20 02:10:05;;;;;;;62.57;41.43;;;15.50;99.90;;;;;;4940457;29;20469;-73
2022/05/20 02:12:41;;;;;;;55.83;37.87;;;15.40;99.90;;;;;;4941488;29;20476;-72
2022/05/20 02:15:14;;;;;;;55.00;39.73;;;15.40;99.90;;;;;;4934531;29;20461;-71
2022/05/20 02:17:47;;;;;;;53.00;36.90;;;15.30;99.90;;;;;;4922488;29;20553;-75
2022/05/20 02:20:20;;;;;;;49.43;35.30;;;15.30;99.90;;;;;;4923200;29;20961;-74
2022/05/20 02:22:54;;;;;;;45.00;34.10;;;15.20;99.90;;;;;;4923096;29;20953;-74
2022/05/20 02:25:27;;;;;;;46.83;32.67;;;15.10;99.90;;;;;;4927514;29;20449;-75
2022/05/20 02:27:59;;;;;;;35.67;27.23;;;15.10;99.90;;;;;;4921474;29;21074;-74
2022/05/20 02:30:32;;;;;;;30.20;24.40;;;15.10;99.90;;;;;;4922144;29;21190;-74
2022/05/20 02:33:06;;;;;;;29.00;22.47;;;15.00;99.90;;;;;;4922309;29;20496;-75
2022/05/20 02:35:34;;;;;;;25.57;19.63;;;15.00;99.90;;;;;;4922682;29;20445;-75
2022/05/20 02:38:08;;;;;;;18.77;16.47;;;15.00;99.90;;;;;;4923523;29;20537;-74
2022/05/20 02:40:37;;;;;;;18.60;16.20;;;15.00;99.90;;;;;;4921230;29;20527;-74
2022/05/20 02:43:07;;;;;;;19.50;16.00;;;14.90;99.90;;;;;;4921188;29;20820;-75
2022/05/20 02:45:36;;;;;;;16.97;14.60;;;14.80;99.90;;;;;;4921221;29;21036;-75
2022/05/20 02:48:05;;;;;;;18.90;15.50;;;14.70;99.90;;;;;;4922033;29;20461;-75
2022/05/20 02:50:33;;;;;;;19.73;16.23;;;14.60;99.90;;;;;;4921213;29;20483;-75
2022/05/20 02:53:01;;;;;;;20.70;15.97;;;14.60;99.90;;;;;;4922990;29;20481;-75
2022/05/20 02:55:29;;;;;;;19.70;15.00;;;14.60;99.90;;;;;;4920945;29;20441;-75
2022/05/20 02:57:56;;;;;;;19.37;15.13;;;14.60;99.90;;;;;;4921684;29;20461;-74
2022/05/20 03:05:58;;;;;;;19.87;15.93;;;14.50;99.90;;;;;;4921263;29;20533;-75
2022/05/20 03:08:26;;;;;;;16.20;14.13;;;14.40;99.90;;;;;;4921618;29;21085;-79
2022/05/20 03:10:54;;;;;;;17.70;14.83;;;14.40;99.90;;;;;;4921144;29;21085;-73
2022/05/20 03:13:21;;;;;;;13.30;11.90;;;14.30;99.90;;;;;;4923285;29;20473;-72
2022/05/20 03:15:50;;;;;;;17.33;13.80;;;14.30;99.90;;;;;;4921322;29;21164;-76
2022/05/20 03:18:18;;;;;;;13.73;11.83;;;14.30;99.90;;;;;;4922331;29;20441;-75
2022/05/20 03:20:46;;;;;;;11.97;10.73;;;14.30;99.90;;;;;;4920617;29;21151;-75
2022/05/20 03:23:14;;;;;;;18.57;13.40;;;14.30;99.90;;;;;;4921610;29;20448;-75
2022/05/20 03:25:42;;;;;;;15.50;13.20;;;14.30;99.90;;;;;;4920837;29;20453;-75
2022/05/20 03:28:12;;;;;;;13.70;12.13;;;14.30;99.90;;;;;;4920283;29;20484;-75
2022/05/20 03:30:40;;;;;;;17.50;13.13;;;14.40;99.90;;;;;;4920986;29;20651;-75
2022/05/20 03:33:09;;;;;;;15.07;12.10;;;14.40;99.90;;;;;;4920763;29;20481;-75
2022/05/20 03:35:37;;;;;;;17.73;12.00;;;14.40;99.90;;;;;;4924555;29;20586;-75
2022/05/20 03:38:05;;;;;;;13.10;10.97;;;14.50;99.90;;;;;;4924552;29;20446;-74
2022/05/20 03:40:32;;;;;;;12.00;10.73;;;14.50;99.90;;;;;;4924432;29;21229;-75
2022/05/20 03:43:00;;;;;;;15.67;10.07;;;14.50;99.90;;;;;;4924831;29;20456;-75
2022/05/20 03:45:28;;;;;;;12.13;10.93;;;14.40;99.90;;;;;;4924681;29;20534;-77
2022/05/20 03:47:56;;;;;;;9.67;8.77;;;14.30;99.90;;;;;;4925397;29;20456;-75
2022/05/20 03:50:25;;;;;;;12.53;9.50;;;14.40;99.90;;;;;;4924551;29;20497;-75
2022/05/20 03:52:55;;;;;;;10.53;9.37;;;14.30;99.90;;;;;;4925704;29;20480;-75
2022/05/20 03:55:23;;;;;;;10.30;9.30;;;14.40;99.90;;;;;;4924289;29;20450;-75
2022/05/20 03:57:51;;;;;;;10.53;9.57;;;14.30;99.90;;;;;;4925046;29;20469;-77
2022/05/20 04:00:20;;;;;;;12.87;9.50;;;14.30;99.90;;;;;;4925394;29;21011;-76
2022/05/20 04:02:47;;;;;;;11.43;9.07;;;14.40;99.90;;;;;;4924360;29;20469;-75
2022/05/20 04:05:15;;;;;;;10.97;8.80;;;14.40;99.90;;;;;;4924099;29;20442;-74
2022/05/20 04:07:44;;;;;;;9.47;8.67;;;14.40;99.90;;;;;;4924427;29;20477;-75
2022/05/20 04:10:12;;;;;;;10.40;8.63;;;14.40;99.90;;;;;;4923915;29;20496;-75
2022/05/20 04:12:43;;;;;;;9.87;8.77;;;14.40;99.90;;;;;;4924522;29;20478;-75
2022/05/20 04:15:15;;;;;;;9.20;8.17;;;14.50;99.90;;;;;;4923871;29;21052;-75
2022/05/20 04:17:43;;;;;;;12.10;8.97;;;14.60;99.90;;;;;;4925123;29;20541;-76
2022/05/20 04:20:11;;;;;;;10.50;8.20;;;14.60;99.90;;;;;;4923800;29;20464;-75
2022/05/20 04:22:40;;;;;;;11.13;8.53;;;14.70;99.90;;;;;;4924693;29;20434;-75
2022/05/20 04:25:11;;;;;;;11.10;8.50;;;14.70;99.90;;;;;;4923712;29;20477;-76
2022/05/20 04:27:40;;;;;;;8.47;7.67;;;14.70;99.90;;;;;;4923628;29;20484;-75
2022/05/20 04:30:09;;;;;;;9.73;8.80;;;14.80;99.90;;;;;;4923022;29;20663;-75
2022/05/20 04:32:37;;;;;;;10.17;7.43;;;14.80;99.90;;;;;;4923621;29;21016;-75
2022/05/20 04:35:06;;;;;;;11.47;8.87;;;14.80;99.90;;;;;;4924413;29;20460;-76
2022/05/20 04:37:34;;;;;;;8.50;7.50;;;14.80;99.90;;;;;;4923459;29;20445;-75
2022/05/20 04:40:02;;;;;;;8.27;7.57;;;14.80;99.90;;;;;;4923298;29;20477;-76
2022/05/20 04:48:03;;;;;;;8.50;7.37;;;14.90;99.90;;;;;;4924920;29;20567;-74
2022/05/20 04:50:30;;;;;;;17.43;9.27;;;14.90;99.90;;;;;;4923072;29;20839;-72
2022/05/20 04:53:05;;;;;;;13.53;10.57;;;14.90;99.90;;;;;;4922487;29;21111;-72
2022/05/20 04:55:31;;;;;;;10.80;7.83;;;15.00;99.90;;;;;;4923615;29;20454;-74
2022/05/20 04:58:02;;;;;;;9.63;7.00;;;15.00;99.90;;;;;;4923035;29;20955;-74
2022/05/20 05:00:31;;;;;;;12.90;8.57;;;15.00;99.90;;;;;;4922360;29;20472;-73
2022/05/20 05:02:59;;;;;;;8.63;7.63;;;15.10;99.90;;;;;;4923247;29;20445;-73
2022/05/20 05:05:29;;;;;;;16.57;9.73;;;15.10;99.90;;;;;;4922663;29;20481;-74
2022/05/20 05:07:58;;;;;;;12.03;8.00;;;15.20;99.90;;;;;;4922793;29;20452;-73
2022/05/20 05:10:30;;;;;;;10.43;7.00;;;15.30;99.90;;;;;;4922814;29;21066;-72
2022/05/20 05:12:59;;;;;;;7.50;6.70;;;15.30;99.90;;;;;;4923121;29;20481;-72
2022/05/20 05:15:29;;;;;;;11.27;7.63;;;15.30;99.90;;;;;;4922555;29;20444;-73
2022/05/20 05:18:12;;;;;;;7.57;6.10;;;15.40;99.90;;;;;;4922718;29;20446;-72
2022/05/20 05:20:46;;;;;;;9.10;5.63;;;15.40;99.90;;;;;;4922465;29;20473;-73
2022/05/20 05:23:15;;;;;;;8.10;6.10;;;15.40;99.90;;;;;;4924041;29;20442;-73
2022/05/20 05:25:44;;;;;;;7.00;6.30;;;15.50;99.90;;;;;;4921611;29;21052;-73
2022/05/20 05:28:12;;;;;;;11.40;5.73;;;15.50;99.90;;;;;;4922212;29;20448;-73
2022/05/20 05:30:45;;;;;;;8.07;5.37;;;15.50;99.90;;;;;;4924752;29;20449;-76
2022/05/20 05:33:13;;;;;;;6.30;5.63;;;15.50;99.90;;;;;;4947940;28;20473;-77
2022/05/20 05:35:41;;;;;;;11.17;5.90;;;15.50;99.90;;;;;;4943798;29;21071;-72
2022/05/20 05:38:09;;;;;;;8.43;5.80;;;15.50;99.90;;;;;;4942686;28;21137;-74
2022/05/20 05:40:37;;;;;;;9.10;5.60;;;15.50;99.90;;;;;;4944969;28;20530;-77
2022/05/20 05:43:05;;;;;;;11.40;7.03;;;15.60;99.90;;;;;;4945037;28;21086;-74
2022/05/20 05:45:35;;;;;;;8.80;5.83;;;15.60;99.90;;;;;;4941029;29;20449;-74
2022/05/20 05:48:06;;;;;;;7.63;5.10;;;15.60;99.90;;;;;;4940125;29;20463;-77
2022/05/20 05:50:36;;;;;;;7.23;5.33;;;15.70;99.90;;;;;;4940795;29;20479;-74
2022/05/20 05:53:11;;;;;;;10.73;6.50;;;15.70;99.90;;;;;;4941911;29;20488;-76
2022/05/20 05:55:40;;;;;;;6.53;5.67;;;15.70;99.90;;;;;;4942487;28;20456;-76
2022/05/20 05:58:09;;;;;;;11.77;5.47;;;15.80;99.90;;;;;;4942110;28;20531;-74
2022/05/20 06:00:37;;;;;;;8.37;5.90;;;15.70;99.90;;;;;;4941776;28;20989;-71
2022/05/20 06:03:07;;;;;;;10.70;6.17;;;15.70;99.90;;;;;;4941619;29;20535;-75
2022/05/20 06:05:35;;;;;;;7.53;6.10;;;15.70;99.90;;;;;;4942539;29;20664;-75
2022/05/20 06:08:04;;;;;;;6.03;5.47;;;15.70;99.90;;;;;;4939786;28;20563;-76
2022/05/20 06:10:32;;;;;;;10.53;5.30;;;15.70;99.90;;;;;;4941117;28;20552;-76
2022/05/20 06:13:00;;;;;;;5.90;4.00;;;15.80;99.90;;;;;;4943210;28;20441;-73
2022/05/20 06:15:28;;;;;;;8.13;4.27;;;15.90;99.90;;;;;;4942007;28;20453;-79
2022/05/20 06:17:57;;;;;;;4.43;4.03;;;15.90;99.90;;;;;;4943192;28;20445;-79
2022/05/20 06:20:27;;;;;;;6.30;3.10;;;16.00;99.90;;;;;;4941751;29;20554;-77
2022/05/20 06:22:56;;;;;;;6.60;3.70;;;16.10;99.90;;;;;;4941320;29;21048;-77
2022/05/20 06:25:25;;;;;;;5.27;2.80;;;16.10;99.90;;;;;;4940450;28;20440;-78
2022/05/20 06:27:54;;;;;;;3.73;2.63;;;16.10;99.90;;;;;;4930609;28;21117;-72
2022/05/20 06:30:22;;;;;;;4.30;3.03;;;16.10;99.90;;;;;;4922683;29;20462;-72
2022/05/20 06:32:50;;;;;;;5.87;3.17;;;16.20;99.90;;;;;;4930588;29;20536;-72
2022/05/20 06:40:51;;;;;;;4.67;2.27;;;16.40;99.90;;;;;;4921802;29;20472;-72
2022/05/20 06:43:21;;;;;;;4.97;3.30;;;16.50;99.90;;;;;;4937565;28;20451;-74
2022/05/20 06:45:52;;;;;;;5.20;2.80;;;16.40;99.90;;;;;;4937401;28;20472;-73
2022/05/20 06:48:44;;;;;;;6.13;3.43;;;16.40;99.90;;;;;;4925566;29;20453;-74
2022/05/20 06:51:13;;;;;;;5.23;2.93;;;16.50;99.90;;;;;;4939713;29;20496;-73
2022/05/20 06:53:43;;;;;;;4.23;3.03;;;16.80;99.90;;;;;;4940053;28;20485;-74
2022/05/20 06:56:12;;;;;;;3.53;2.70;;;16.90;99.90;;;;;;4936204;29;20442;-73
2022/05/20 06:58:40;;;;;;;7.57;2.93;;;16.70;99.90;;;;;;4921208;29;20464;-72
2022/05/20 07:01:08;;;;;;;5.47;2.80;;;16.80;99.90;;;;;;4922704;29;21130;-73
2022/05/20 07:03:36;;;;;;;3.67;1.90;;;16.80;99.90;;;;;;4940056;28;20616;-73
2022/05/20 07:06:05;;;;;;;3.77;2.70;;;16.80;99.90;;;;;;4921536;29;20458;-73
2022/05/20 07:08:34;;;;;;;7.97;2.30;;;16.90;99.90;;;;;;4929741;28;20588;-72
2022/05/20 07:11:07;;;;;;;3.70;2.77;;;16.90;99.90;;;;;;4941616;28;20458;-72
2022/05/20 07:13:40;;;;;;;8.10;2.50;;;17.10;99.90;;;;;;4933889;28;20457;-77
2022/05/20 07:16:12;;;;;;;4.87;2.53;;;17.20;99.90;;;;;;4934571;29;20515;-77
2022/05/20 07:18:40;;;;;;;4.60;2.27;;;17.20;99.90;;;;;;4943809;28;21006;-81
2022/05/20 07:21:08;;;;;;;6.27;2.40;;;17.20;99.90;;;;;;4932844;29;20485;-77
2022/05/20 07:23:36;;;;;;;4.07;2.20;;;17.30;99.90;;;;;;4946270;28;20466;-77
2022/05/20 07:26:05;;;;;;;3.33;2.27;;;17.20;99.90;;;;;;4948897;29;20455;-77
2022/05/20 07:28:34;;;;;;;3.67;2.00;;;17.20;99.90;;;;;;4936264;29;20908;-76
2022/05/20 07:31:02;;;;;;;2.73;1.90;;;17.20;99.90;;;;;;4930794;29;21013;-77
2022/05/20 07:33:30;;;;;;;4.60;2.00;;;17.20;99.90;;;;;;4936731;29;20497;-78
2022/05/20 07:35:59;;;;;;;2.53;1.83;;;17.20;99.90;;;;;;4932019;29;20491;-78
2022/05/20 07:38:27;;;;;;;4.97;2.40;;;17.30;99.90;;;;;;4940782;29;20537;-77
2022/05/20 07:40:56;;;;;;;3.60;1.83;;;17.50;99.90;;;;;;4944975;28;20484;-79
2022/05/20 07:43:26;;;;;;;2.40;1.70;;;17.70;99.90;;;;;;4941260;28;20447;-77
2022/05/20 07:45:54;;;;;;;3.67;1.90;;;17.90;99.90;;;;;;4935561;29;20465;-77
2022/05/20 07:48:22;;;;;;;5.27;2.80;;;17.80;99.90;;;;;;4926958;29;20459;-75
2022/05/20 07:50:56;;;;;;;7.33;2.03;;;17.70;99.90;;;;;;4924375;29;20479;-79
2022/05/20 07:53:33;;;;;;;4.13;1.80;;;17.60;99.90;;;;;;4927655;29;20475;-77
2022/05/20 07:56:05;;;;;;;4.67;1.53;;;17.40;99.90;;;;;;4937404;29;20507;-78
2022/05/20 07:58:38;;;;;;;4.33;1.90;;;17.30;99.90;;;;;;4928484;29;21165;-75
2022/05/20 08:01:23;;;;;;;4.30;2.40;;;17.40;99.90;;;;;;4925419;29;20456;-75
2022/05/20 08:06:44;;;;;;;9.83;2.27;;;17.40;99.90;;;;;;4926702;29;20431;-77
2022/05/20 08:09:12;;;;;;;3.60;2.20;;;17.50;99.90;;;;;;4933438;29;20468;-76
2022/05/20 08:11:40;;;;;;;4.40;1.70;;;17.50;99.90;;;;;;4939727;29;20482;-74
2022/05/20 08:14:10;;;;;;;2.60;2.00;;;17.40;99.90;;;;;;4927179;29;20511;-72
2022/05/20 08:16:38;;;;;;;3.30;1.90;;;17.60;99.90;;;;;;4929349;29;20464;-74
2022/05/20 08:19:06;;;;;;;2.00;1.90;;;17.80;99.90;;;;;;4933344;28;20556;-72
2022/05/20 08:21:34;;;;;;;2.10;1.90;;;18.10;99.90;;;;;;4929969;29;21199;-72
2022/05/20 08:24:02;;;;;;;2.10;2.00;;;18.30;99.90;;;;;;4942841;28;20447;-73
2022/05/20 08:26:29;;;;;;;4.20;2.27;;;18.30;99.90;;;;;;4942479;29;20459;-73
2022/05/20 08:28:59;;;;;;;5.20;2.50;;;18.20;99.90;;;;;;4942683;29;20525;-73
2022/05/20 08:31:28;;;;;;;3.07;2.37;;;18.10;99.90;;;;;;4943047;29;20546;-74
2022/05/20 08:33:57;;;;;;;4.00;1.87;;;17.90;99.90;;;;;;4939868;29;20439;-73
2022/05/20 08:36:25;;;;;;;2.60;2.40;;;17.90;99.90;;;;;;4922878;29;20526;-73
2022/05/20 08:38:53;;;;;;;5.83;2.60;;;18.10;99.90;;;;;;4923389;29;20451;-73
2022/05/20 08:41:25;;;;;;;5.50;2.10;;;18.10;99.90;;;;;;4922676;29;20556;-72
2022/05/20 08:43:53;;;;;;;2.40;2.07;;;18.20;99.90;;;;;;4930800;29;20476;-72
2022/05/20 08:46:23;;;;;;;1.90;1.80;;;18.20;99.90;;;;;;4933126;29;20482;-72
2022/05/20 08:48:55;;;;;;;7.43;2.40;;;18.40;99.90;;;;;;4937373;29;20526;-72
2022/05/20 08:51:28;;;;;;;3.93;2.60;;;18.40;99.90;;;;;;4923145;29;20462;-73
2022/05/20 08:53:56;;;;;;;5.37;2.00;;;18.30;99.90;;;;;;4923703;29;21107;-71
2022/05/20 08:56:26;;;;;;;4.43;3.00;;;18.50;99.90;;;;;;4923020;29;20477;-73
2022/05/20 08:58:57;;;;;;;3.80;2.20;;;18.60;99.90;;;;;;4896038;28;21538;-73
2022/05/20 09:01:30;;;;;;;3.30;2.00;;;18.70;99.90;;;;;;4935475;29;20564;-74
2022/05/20 09:04:01;;;;;;;4.40;2.17;;;18.60;99.90;;;;;;4925382;29;21181;-73
2022/05/20 09:06:29;;;;;;;2.50;2.10;;;18.40;99.90;;;;;;4940712;28;20559;-75
2022/05/20 09:09:08;;;;;;;3.27;1.77;;;18.20;99.90;;;;;;4926822;28;20448;-73
2022/05/20 09:11:38;;;;;;;2.67;1.90;;;18.00;99.90;;;;;;4933791;29;20478;-73
2022/05/20 09:17:09;;;;;;;2.50;2.23;;;17.80;99.90;;;;;;4931488;29;20498;-73
2022/05/20 09:19:39;;;;;;;3.53;2.70;;;17.70;99.90;;;;;;4937498;29;20447;-73
2022/05/20 09:22:14;;;;;;;5.67;3.07;;;17.70;99.90;;;;;;4923531;29;20889;-73
2022/05/20 09:24:45;;;;;;;8.20;2.40;;;17.70;99.90;;;;;;4934793;29;20450;-72
2022/05/20 09:27:18;;;;;;;3.93;2.30;;;17.70;99.90;;;;;;4926833;29;20451;-71
2022/05/20 09:29:48;;;;;;;3.87;2.03;;;17.70;99.90;;;;;;4936220;29;20465;-71
2022/05/20 09:32:23;;;;;;;4.47;2.53;;;17.80;99.90;;;;;;4932399;29;20469;-71
2022/05/20 09:35:01;;;;;;;3.27;2.50;;;17.90;99.90;;;;;;4938158;29;20497;-72
2022/05/20 09:37:32;;;;;;;4.30;2.23;;;18.00;99.90;;;;;;4926402;29;20469;-71
2022/05/20 09:40:19;;;;;;;3.03;1.70;;;18.00;99.90;;;;;;4937584;29;20447;-72
2022/05/20 09:43:10;;;;;;;3.90;2.37;;;18.10;99.90;;;;;;4941427;28;20452;-76
2022/05/20 09:45:45;;;;;;;2.93;2.63;;;18.10;99.90;;;;;;4942118;28;21105;-72
2022/05/20 09:48:20;;;;;;;2.87;2.40;;;18.10;99.90;;;;;;4956684;28;20476;-75
2022/05/20 09:51:05;;;;;;;2.93;2.10;;;18.10;99.90;;;;;;4960667;28;20453;-75
2022/05/20 09:53:36;;;;;;;5.17;2.20;;;18.10;99.90;;;;;;4960953;28;20453;-73
2022/05/20 09:56:22;;;;;;;5.20;2.60;;;18.10;99.90;;;;;;4952795;28;20508;-78
2022/05/20 09:59:12;;;;;;;5.40;2.87;;;18.20;99.90;;;;;;4949827;28;20523;-74
2022/05/20 10:01:42;;;;;;;2.17;1.97;;;18.30;99.90;;;;;;4942241;29;20478;-73
2022/05/20 10:04:18;;;;;;;3.10;2.17;;;18.20;99.90;;;;;;4942905;29;20526;-77
2022/05/20 10:06:55;;;;;;;5.07;2.07;;;18.20;99.90;;;;;;4937448;29;20451;-73
2022/05/20 10:09:33;;;;;;;6.50;2.40;;;18.30;99.90;;;;;;4933179;29;20451;-71
2022/05/20 10:12:05;;;;;;;4.63;2.50;;;18.30;99.90;;;;;;4940975;29;20770;-72
2022/05/20 10:14:44;;;;;;;3.37;2.97;;;18.40;99.90;;;;;;4941819;29;20439;-70
2022/05/20 10:17:26;;;;;;;5.03;2.10;;;18.50;99.90;;;;;;4939363;29;20487;-73
2022/05/20 10:19:59;;;;;;;3.40;2.60;;;18.50;99.90;;;;;;4929505;28;20980;-70
2022/05/20 10:22:40;;;;;;;7.87;3.73;;;18.40;99.90;;;;;;4928780;29;20476;-70
2022/05/20 10:25:13;;;;;;;2.70;2.10;;;18.40;99.90;;;;;;4930505;29;20454;-71
2022/05/20 10:27:52;;;;;;;4.27;2.50;;;18.40;99.90;;;;;;4926950;29;20465;-70
2022/05/20 10:33:10;;;;;;;3.73;2.40;;;18.60;99.90;;;;;;4927420;29;20465;-71
2022/05/20 10:35:52;;;;;;;3.77;2.70;;;18.60;99.90;;;;;;4931553;29;20846;-71
2022/05/20 10:38:38;;;;;;;3.03;2.37;;;18.50;99.90;;;;;;4932535;29;20443;-71
2022/05/20 10:41:08;;;;;;;4.23;2.70;;;18.70;99.90;;;;;;4927223;29;21293;-71
2022/05/20 10:49:40;;;;;;;4.57;2.30;;;19.20;99.90;;;;;;4924665;29;21208;-70
2022/05/20 10:52:29;;;;;;;4.70;2.60;;;19.30;99.90;;;;;;4929664;29;20481;-70
2022/05/20 10:55:17;;;;;;;3.10;2.57;;;19.40;99.90;;;;;;4926140;29;21069;-71
2022/05/20 10:58:33;;;;;;;4.80;2.30;;;19.50;99.90;;;;;;4929240;29;20486;-71
2022/05/20 11:01:11;;;;;;;2.93;1.83;;;19.60;99.90;;;;;;4861294;29;21145;-70
2022/05/20 11:04:05;;;;;;;3.50;2.10;;;19.70;99.90;;;;;;4861094;29;20527;-71
2022/05/20 11:07:09;;;;;;;2.97;2.33;;;20.00;99.90;;;;;;4912037;29;20659;-72
2022/05/20 11:09:51;;;;;;;3.07;2.17;;;19.90;99.90;;;;;;4920002;29;20460;-71
2022/05/20 11:12:27;;;;;;;4.37;2.70;;;19.90;99.90;;;;;;4925408;29;20465;-71
2022/05/20 11:15:23;;;;;;;4.20;2.30;;;19.80;99.90;;;;;;4928637;29;20671;-73
2022/05/20 11:18:16;;;;;;;2.63;2.40;;;19.90;99.90;;;;;;4933125;28;20592;-71
2022/05/20 11:21:02;;;;;;;2.73;2.10;;;20.10;99.90;;;;;;4927853;28;21026;-72
2022/05/20 11:23:47;;;;;;;5.00;2.40;;;20.10;99.90;;;;;;4928121;29;20441;-71
2022/05/20 11:26:33;;;;;;;5.60;2.63;;;20.30;99.90;;;;;;4926564;29;20442;-71
2022/05/20 11:29:21;;;;;;;2.53;2.33;;;20.40;99.90;;;;;;4930194;29;20994;-71
2022/05/20 11:31:54;;;;;;;4.53;2.60;;;20.50;99.90;;;;;;4919866;29;20505;-73
2022/05/20 11:34:39;;;;;;;3.47;2.00;;;20.60;99.90;;;;;;4928284;29;20465;-70
2022/05/20 11:37:22;;;;;;;4.57;2.83;;;20.60;99.90;;;;;;4923368;29;20477;-76
2022/05/20 11:40:14;;;;;;;3.20;2.23;;;20.60;99.90;;;;;;4923424;29;20461;-77
2022/05/20 11:42:57;;;;;;;2.80;2.60;;;20.50;99.90;;;;;;4922266;29;20979;-77
2022/05/20 11:45:38;;;;;;;5.07;2.20;;;20.50;99.90;;;;;;4940086;29;20437;-77
2022/05/20 11:48:25;;;;;;;2.57;2.37;;;20.50;99.90;;;;;;4928163;28;20447;-77
2022/05/20 11:51:10;;;;;;;4.00;2.70;;;20.70;99.90;;;;;;4937662;28;20571;-77
2022/05/20 11:53:54;;;;;;;3.73;2.73;;;20.80;99.90;;;;;;4922718;28;20501;-77
2022/05/20 11:56:30;;;;;;;3.63;2.30;;;21.00;99.90;;;;;;4928272;29;21135;-77
2022/05/20 11:59:07;;;;;;;4.87;2.70;;;21.10;99.90;;;;;;4936288;29;21065;-77
2022/05/20 12:01:37;;;;;;;4.53;2.80;;;21.30;99.90;;;;;;4926053;29;20557;-78
2022/05/20 12:04:08;;;;;;;6.00;2.60;;;21.60;99.90;;;;;;4924780;29;20466;-79
2022/05/20 12:06:42;;;;;;;3.97;3.03;;;21.70;99.90;;;;;;4930475;29;20460;-77
2022/05/20 12:09:32;;;;;;;4.03;2.73;;;21.80;99.90;;;;;;4934610;29;20464;-78
2022/05/20 12:12:15;;;;;;;2.33;2.13;;;21.90;99.90;;;;;;4924370;29;20558;-77
2022/05/20 12:15:09;;;;;;;2.53;2.10;;;21.90;99.90;;;;;;4928709;29;20544;-77
2022/05/20 12:17:40;;;;;;;3.93;2.50;;;21.90;99.90;;;;;;4925112;29;20734;-77
2022/05/20 12:26:23;;;;;;;4.83;2.13;;;22.10;99.90;;;;;;4938164;29;20500;-75
2022/05/20 12:28:52;;;;;;;3.30;2.23;;;22.10;99.90;;;;;;4929877;29;20443;-77
2022/05/20 12:31:37;;;;;;;3.80;3.10;;;22.30;99.90;;;;;;4925486;29;20468;-77
2022/05/20 12:34:10;;;;;;;2.80;2.53;;;22.40;99.90;;;;;;4940972;29;20491;-75
2022/05/20 12:36:40;;;;;;;2.87;2.63;;;22.30;99.90;;;;;;4924890;29;20522;-76
2022/05/20 12:39:41;;;;;;;2.07;1.87;;;22.40;99.90;;;;;;4935516;29;20462;-76
2022/05/20 12:42:21;;;;;;;3.37;2.47;;;22.50;99.90;;;;;;4928128;29;20470;-76
2022/05/20 12:44:49;;;;;;;3.03;1.90;;;22.60;99.90;;;;;;4925972;28;20476;-76
2022/05/20 12:47:29;;;;;;;2.10;1.90;;;22.70;99.90;;;;;;4940953;28;20458;-76
2022/05/20 12:50:05;;;;;;;4.40;2.40;;;22.80;99.90;;;;;;4950176;28;20459;-75
2022/05/20 12:52:35;;;;;;;6.47;2.60;;;23.00;99.90;;;;;;4951349;28;20455;-78
2022/05/20 12:55:15;;;;;;;2.20;1.60;;;22.90;99.90;;;;;;4954076;28;20453;-80
2022/05/20 12:57:53;;;;;;;2.40;2.20;;;23.10;99.90;;;;;;4952988;28;20557;-77
2022/05/20 13:00:30;;;;;;;4.93;2.50;;;23.20;99.90;;;;;;4961678;28;20652;-75
2022/05/20 13:03:02;;;;;;;2.03;1.83;;;23.30;99.90;;;;;;4956996;28;20451;-76
2022/05/20 13:05:36;;;;;;;4.00;2.00;;;23.40;99.90;;;;;;4949167;28;20548;-76
2022/05/20 13:08:10;;;;;;;4.10;2.70;;;23.50;99.90;;;;;;4950610;28;20435;-76
2022/05/20 13:10:41;;;;;;;4.07;2.73;;;23.50;99.90;;;;;;4950729;28;20590;-77
2022/05/20 13:13:11;;;;;;;6.73;2.57;;;23.50;99.90;;;;;;4948665;28;20445;-78
2022/05/20 13:15:43;;;;;;;4.43;2.67;;;23.60;99.90;;;;;;4952227;28;20575;-77
2022/05/20 13:18:17;;;;;;;4.20;2.60;;;23.70;99.90;;;;;;4949228;28;20476;-78
2022/05/20 13:20:48;;;;;;;3.53;2.83;;;23.70;99.90;;;;;;4948656;28;21068;-77
2022/05/20 13:23:20;;;;;;;3.10;2.70;;;23.70;99.90;;;;;;4942271;28;20536;-77
2022/05/20 13:25:48;;;;;;;3.70;2.53;;;23.60;99.90;;;;;;4947832;28;20634;-76
2022/05/20 13:28:23;;;;;;;3.10;2.50;;;23.50;99.90;;;;;;4951897;28;20447;-76
2022/05/20 13:30:51;;;;;;;7.40;3.03;;;23.40;99.90;;;;;;4943009;28;20474;-76
2022/05/20 13:33:19;;;;;;;4.00;3.00;;;23.20;99.90;;;;;;4935257;28;20484;-76
2022/05/20 13:35:51;;;;;;;3.27;3.00;;;23.00;99.90;;;;;;4930069;29;20444;-75
2022/05/20 13:38:23;;;;;;;3.40;3.10;;;22.70;99.90;;;;;;4922683;29;20479;-76
2022/05/20 13:40:52;;;;;;;3.50;3.27;;;22.40;99.90;;;;;;4923495;29;20829;-76
2022/05/20 13:43:26;;;;;;;2.60;2.40;;;22.20;99.90;;;;;;4929313;29;20463;-77
2022/05/20 13:51:38;;;;;;;3.77;3.23;;;21.90;99.90;;;;;;4940398;28;20564;-76